Portada
METAR-TAF:

METAR-TAF

Aeroports :

Damasc, Síria

latitud: 33-25N, longitud: 036-31E, altitud: 608 m

Observació

L'informe es va fer fa 39 minuts, a les 20:00 UTC
Vent 16 kt del Est
Temperatura 14°C
Humitat 63%
Pressió 1017 hPa
Visibilitat 10 km o més
Núvols disperses a una alçada de 3000 ft

METAR: OSDI 222000Z 09016KT 9999 SCT030 14/07 Q1017

Hora: 22:39 (20:39 UTC)

Pronòstic

L'informe es va fer fa 3 hores i 39 minuts, a les 17:00 UTC
Pronòstic vàlid del 22 a les 18 UTC al 23 a les 24 UTC
Vent 10 kt del Sud-Oest
Visibilitat 10 km o més
Escasses núvols a una alçada de 3000 ft
Probabilitat 30% :
Temporalment
l' 23 a les 03 UTC al 23 a les 06 UTC
Vent 3 kt amb direcció variable

TAF: OSDI 221700Z 2218/2324 22010KT 9999 FEW030 PROB30 TEMPO 2303/2306 VRB03KT 3000BR

Observacions i pronòstics meteorològics de més de 4000 aeroports (METAR i TAF).

Les estacions disponibles són els punts grocs i vermells al mapa.

Posi el ratolí al punt desitjat per veure el nom de l'estació.

Feu clic per veure les observacions i els pronòstics meteorològics.

Per canviar el mapa: feu clic els botons verds amb una creu de color negre per apropar; al botó verd amb un guió per allunyar la imatge; o en les fletxes verdes per a mapes adjacents.


METAR-TAF: